Time;durP1;ratioP1;P1;durP2;ratioP2;P2;SDS_P1;SDS_P2;PMS_P1;PMS_P2;Temp;Humidity;BMP_temperature;BMP_pressure;BME280_temperature;BME280_humidity;BME280_pressure;Samples;Min_cycle;Max_cycle;Signal;HPM_P1;HPM_P2
2023/02/14 00:01:31;;;;;;;7.03;4.05;;;;;;;8.98;37.94;103095.88;4950906;28;20080;-81
2023/02/14 00:04:00;;;;;;;6.95;3.63;;;;;;;8.94;37.96;103096.97;4950712;29;20046;-82
2023/02/14 00:06:28;;;;;;;7.25;4.28;;;;;;;8.94;37.89;103105.16;4929892;29;20075;-82
2023/02/14 00:08:56;;;;;;;6.18;4.20;;;;;;;8.94;37.92;103096.97;4950931;29;20230;-82
2023/02/14 00:11:24;;;;;;;6.95;4.18;;;;;;;8.93;38.01;103099.75;4939956;29;20098;-82
2023/02/14 00:16:39;;;;;;;6.50;3.90;;;;;;;8.91;38.33;103096.25;4935502;29;20047;-82
2023/02/14 00:19:08;;;;;;;6.65;4.20;;;;;;;8.88;37.83;103091.78;4922708;29;20052;-82
2023/02/14 00:21:39;;;;;;;7.18;4.30;;;;;;;8.89;37.79;103092.69;4935755;29;20044;-82
2023/02/14 00:24:10;;;;;;;6.88;4.10;;;;;;;8.85;38.19;103089.19;4940816;29;20135;-82
2023/02/14 00:26:38;;;;;;;7.15;4.50;;;;;;;8.82;37.86;103080.25;4945158;29;20103;-83
2023/02/14 00:29:09;;;;;;;7.68;4.85;;;;;;;8.80;38.11;103085.78;4935251;29;20068;-83
2023/02/14 00:31:40;;;;;;;5.72;3.60;;;;;;;8.80;38.19;103087.63;4935408;29;20043;-83
2023/02/14 00:34:09;;;;;;;7.43;4.28;;;;;;;8.77;38.27;103085.91;4950427;29;20147;-82
2023/02/14 00:36:38;;;;;;;7.72;4.10;;;;;;;8.75;38.08;103086.97;4947295;28;20039;-82
2023/02/14 00:39:07;;;;;;;5.50;3.88;;;;;;;8.74;38.25;103080.59;4934261;29;20043;-82
2023/02/14 00:41:37;;;;;;;5.80;4.07;;;;;;;8.72;38.22;103082.50;4951339;29;20079;-82
2023/02/14 00:44:06;;;;;;;7.00;4.35;;;;;;;8.70;38.20;103084.41;4939651;29;20051;-82
2023/02/14 00:46:34;;;;;;;6.85;4.55;;;;;;;8.68;38.15;103078.13;4942610;29;20055;-82
2023/02/14 00:49:04;;;;;;;5.32;3.80;;;;;;;8.68;38.15;103080.84;4933893;29;20522;-83
2023/02/14 00:51:32;;;;;;;6.75;4.18;;;;;;;8.65;38.17;103079.19;4948289;28;20154;-82
2023/02/14 00:54:02;;;;;;;6.15;3.88;;;;;;;8.64;38.05;103074.66;4941461;29;20043;-83
2023/02/14 00:56:32;;;;;;;6.93;4.65;;;;;;;8.64;38.12;103073.78;4934525;29;20047;-82
2023/02/14 00:59:00;;;;;;;7.00;4.38;;;;;;;8.61;38.20;103077.53;4904752;29;20537;-82
2023/02/14 01:01:28;;;;;;;5.60;3.95;;;;;;;8.60;38.28;103080.31;4928868;29;20134;-82
2023/02/14 01:03:57;;;;;;;7.13;4.32;;;;;;;8.58;38.13;103084.97;4948371;29;20142;-82
2023/02/14 01:06:27;;;;;;;7.68;4.50;;;;;;;8.57;38.41;103081.34;4940941;29;20277;-82
2023/02/14 01:08:57;;;;;;;6.20;4.03;;;;;;;8.56;37.96;103092.34;4929480;29;20079;-82
2023/02/14 01:11:25;;;;;;;7.90;4.28;;;;;;;8.53;38.13;103090.63;4945782;29;20043;-82
2023/02/14 01:13:57;;;;;;;6.50;4.28;;;;;;;8.52;38.22;103094.28;4950340;29;20042;-82
2023/02/14 01:16:27;;;;;;;6.72;4.25;;;;;;;8.51;38.23;103092.53;4946685;29;20055;-83
2023/02/14 01:18:55;;;;;;;6.15;4.45;;;;;;;8.48;38.08;103089.94;4931244;29;20047;-83
2023/02/14 01:21:25;;;;;;;6.10;4.20;;;;;;;8.47;38.39;103092.72;4936740;29;20035;-83
2023/02/14 01:23:59;;;;;;;6.10;3.97;;;;;;;8.45;38.14;103097.34;4922741;29;20177;-83
2023/02/14 01:26:28;;;;;;;5.35;3.75;;;;;;;8.42;38.23;103086.59;4948828;29;20138;-83
2023/02/14 01:28:57;;;;;;;6.43;3.85;;;;;;;8.40;38.03;103086.66;4931874;29;20059;-81
2023/02/14 01:31:27;;;;;;;5.97;4.05;;;;;;;8.39;38.18;103092.19;4931854;29;20058;-82
2023/02/14 01:33:57;;;;;;;6.38;4.05;;;;;;;8.35;37.82;103088.69;4927845;29;20040;-81
2023/02/14 01:36:31;;;;;;;6.10;3.60;;;;;;;8.33;38.27;103088.78;4940600;28;20035;-82
2023/02/14 01:39:03;;;;;;;8.05;4.25;;;;;;;8.31;37.89;103089.78;4945383;28;20038;-81
2023/02/14 01:41:35;;;;;;;6.68;4.05;;;;;;;8.27;37.95;103083.56;4950641;29;20137;-83
2023/02/14 01:44:08;;;;;;;6.90;4.20;;;;;;;8.25;38.08;103081.88;4932741;29;20048;-82
2023/02/14 01:46:37;;;;;;;;;;;;;;;7.98;38.50;103086.59;4945429;28;20057;-82
2023/02/14 01:49:11;;;;;;;6.63;4.00;;;;;;;8.16;38.37;103076.81;4926098;29;20342;-83
2023/02/14 01:51:44;;;;;;;6.28;3.90;;;;;;;8.16;38.17;103080.41;4941654;29;20395;-83
2023/02/14 01:54:14;;;;;;;6.07;4.28;;;;;;;8.13;38.17;103077.81;4935948;29;20075;-83
2023/02/14 01:56:47;;;;;;;5.95;4.20;;;;;;;8.10;38.07;103080.63;4934302;29;20036;-82
2023/02/14 01:59:19;;;;;;;7.32;4.40;;;;;;;8.07;38.12;103072.59;4935962;29;20078;-82
2023/02/14 02:01:49;;;;;;;6.88;4.38;;;;;;;8.03;38.03;103079.09;4951418;29;20039;-82
2023/02/14 02:04:22;;;;;;;6.55;4.22;;;;;;;7.99;38.29;103082.91;4928881;29;20427;-82
2023/02/14 02:06:53;;;;;;;7.13;4.05;;;;;;;7.94;38.07;103074.03;4951765;28;20047;-83
2023/02/14 02:09:30;;;;;;;7.57;4.50;;;;;;;7.91;38.51;103060.53;4926881;29;20047;-83
2023/02/14 02:11:59;;;;;;;6.65;4.45;;;;;;;7.85;38.29;103066.22;4928228;29;20051;-82
2023/02/14 02:14:27;;;;;;;5.97;3.97;;;;;;;7.80;38.20;103066.44;4939308;29;20048;-82
2023/02/14 02:17:19;;;;;;;6.20;3.92;;;;;;;7.78;38.30;103073.78;4934091;29;20447;-83
2023/02/14 02:20:25;;;;;;;6.18;4.10;;;;;;;7.72;38.50;103063.13;4943430;28;20043;-83
2023/02/14 02:23:33;;;;;;;7.22;4.22;;;;;;;7.68;38.73;103058.75;4947898;28;20542;-83
2023/02/14 02:26:43;;;;;;;6.15;4.00;;;;;;;7.62;38.71;103071.72;4933541;29;20142;-83
2023/02/14 02:29:33;;;;;;;6.68;4.18;;;;;;;7.60;38.44;103066.34;4911275;29;20050;-83
2023/02/14 02:32:25;;;;;;;6.53;3.95;;;;;;;7.58;38.94;103066.41;4943567;28;20075;-83
2023/02/14 02:35:15;;;;;;;7.10;4.40;;;;;;;7.53;38.67;103065.69;4905277;28;20431;-83
2023/02/14 02:37:54;;;;;;;6.75;4.07;;;;;;;7.51;38.57;103066.72;4928276;29;20039;-82
2023/02/14 02:40:43;;;;;;;7.10;4.22;;;;;;;7.50;38.57;103067.69;4928738;28;20461;-83
2023/02/14 02:43:28;;;;;;;7.82;4.60;;;;;;;7.48;38.65;103058.66;4932309;29;20043;-82
2023/02/14 02:48:59;;;;;;;7.40;4.10;;;;;;;7.41;38.78;103049.84;4940801;29;20062;-83
2023/02/14 02:54:33;;;;;;;6.70;4.65;;;;;;;7.37;38.90;103053.63;4893884;29;20071;-82
2023/02/14 02:57:05;;;;;;;6.30;4.32;;;;;;;7.36;38.48;103048.22;4953589;29;20407;-82
2023/02/14 02:59:38;;;;;;;6.28;4.13;;;;;;;7.33;39.07;103051.09;4935731;29;20590;-82
2023/02/14 03:02:11;;;;;;;6.63;4.05;;;;;;;7.30;38.42;103051.22;4952357;29;20135;-83
2023/02/14 03:04:54;;;;;;;7.03;4.32;;;;;;;7.27;38.86;103046.75;4954903;29;20134;-83
2023/02/14 03:07:38;;;;;;;7.55;4.65;;;;;;;7.26;38.65;103057.75;4935803;29;20043;-83
2023/02/14 03:10:13;;;;;;;7.45;4.55;;;;;;;7.21;38.80;103047.00;4937258;29;20050;-83
2023/02/14 03:13:10;;;;;;;7.32;4.93;;;;;;;7.21;39.00;103055.19;4941220;29;20067;-83
2023/02/14 03:15:52;;;;;;;6.93;4.53;;;;;;;7.15;39.13;103049.97;4939225;28;20148;-83
2023/02/14 03:18:51;;;;;;;7.85;4.93;;;;;;;7.11;39.06;103056.47;4945029;29;20106;-83
2023/02/14 03:21:27;;;;;;;7.85;4.63;;;;;;;7.08;38.96;103056.59;4952098;29;20069;-83
2023/02/14 03:24:05;;;;;;;8.15;4.88;;;;;;;7.05;38.88;103056.72;4950240;29;20039;-83
2023/02/14 03:26:37;;;;;;;7.47;4.82;;;;;;;6.99;38.78;103059.69;4936847;29;20086;-83
2023/02/14 03:29:15;;;;;;;8.90;4.80;;;;;;;6.97;38.92;103050.66;4942624;29;20067;-83
2023/02/14 03:31:54;;;;;;;6.38;3.90;;;;;;;6.94;38.87;103054.38;4939363;29;20047;-82
2023/02/14 03:34:30;;;;;;;6.68;4.30;;;;;;;6.90;39.16;103058.19;4951263;29;20230;-83
2023/02/14 03:37:03;;;;;;;6.38;4.60;;;;;;;6.88;39.06;103057.34;4934077;29;20130;-82
2023/02/14 03:39:39;;;;;;;7.63;4.90;;;;;;;6.87;39.19;103060.13;4932988;29;20051;-83
2023/02/14 03:42:14;;;;;;;7.35;4.85;;;;;;;6.84;39.42;103066.59;4937923;29;20497;-83
2023/02/14 03:44:45;;;;;;;8.25;4.97;;;;;;;6.82;39.22;103057.59;4949874;29;20043;-83
2023/02/14 03:47:26;;;;;;;;;;;;;;;6.56;39.77;103061.22;4929887;29;20142;-82
2023/02/14 03:49:58;;;;;;;6.55;4.20;;;;;;;6.74;39.31;103062.38;4956777;28;19930;-82
2023/02/14 03:52:30;;;;;;;7.63;4.85;;;;;;;6.75;39.41;103066.91;4932030;29;20051;-81
2023/02/14 03:55:02;;;;;;;6.65;4.45;;;;;;;6.76;39.44;103058.72;4926499;29;20102;-83
2023/02/14 03:57:35;;;;;;;7.60;4.72;;;;;;;6.72;39.41;103059.72;4929712;29;20044;-83
2023/02/14 04:00:04;;;;;;;;;;;;;;;6.48;39.75;103066.03;4942061;29;20297;-83
2023/02/14 04:02:42;;;;;;;6.10;4.03;;;;;;;6.69;39.12;103058.97;4945632;28;19922;-83
2023/02/14 04:05:16;;;;;;;9.15;4.78;;;;;;;6.70;39.07;103055.25;4928477;29;20566;-83
2023/02/14 04:07:46;;;;;;;6.50;4.25;;;;;;;6.71;39.06;103057.03;4935784;29;20058;-83
2023/02/14 04:10:15;;;;;;;6.45;4.20;;;;;;;6.70;38.98;103056.16;4924697;28;20059;-83
2023/02/14 04:12:44;;;;;;;6.82;4.35;;;;;;;6.69;39.13;103058.97;4949597;28;20052;-83
2023/02/14 04:15:14;;;;;;;7.13;4.72;;;;;;;6.70;39.22;103055.25;4946389;28;20090;-82
2023/02/14 04:20:28;;;;;;;8.77;5.05;;;;;;;6.68;39.01;103057.19;4931912;29;20264;-83
2023/02/14 04:22:56;;;;;;;6.90;4.57;;;;;;;6.65;39.17;103055.44;4933546;29;20038;-83
2023/02/14 04:25:25;;;;;;;7.15;4.65;;;;;;;6.66;39.24;103054.50;4941694;29;20459;-83
2023/02/14 04:27:53;;;;;;;8.55;5.30;;;;;;;6.64;38.96;103056.38;4959823;23;20046;-78
2023/02/14 04:30:22;;;;;;;9.00;5.20;;;;;;;6.62;38.95;103046.50;4963990;28;20046;-77
2023/02/14 04:32:50;;;;;;;7.53;4.72;;;;;;;6.60;39.22;103041.13;4946231;28;20043;-78
2023/02/14 04:35:18;;;;;;;7.55;4.95;;;;;;;6.59;39.19;103044.78;4951148;29;20102;-77
2023/02/14 04:37:45;;;;;;;9.05;5.05;;;;;;;6.56;39.00;103044.88;4929665;29;20047;-77
2023/02/14 04:40:16;;;;;;;8.52;5.30;;;;;;;6.55;39.17;103044.94;4934302;29;20044;-78
2023/02/14 04:42:45;;;;;;;9.38;5.63;;;;;;;6.56;39.14;103046.72;4938969;29;20082;-78
2023/02/14 04:45:13;;;;;;;7.25;4.78;;;;;;;6.52;38.87;103036.91;4934422;29;20040;-78
2023/02/14 04:47:41;;;;;;;7.50;5.20;;;;;;;6.50;39.32;103039.69;4946089;29;20039;-77
2023/02/14 04:50:09;;;;;;;8.30;4.95;;;;;;;6.48;39.21;103036.13;4943461;28;20052;-77
2023/02/14 04:52:38;;;;;;;8.27;5.25;;;;;;;6.46;39.26;103032.56;4946068;28;20043;-78
2023/02/14 04:55:06;;;;;;;8.32;5.30;;;;;;;6.44;39.44;103029.91;4946733;29;20074;-78
2023/02/14 04:57:34;;;;;;;9.73;6.00;;;;;;;6.40;39.36;103027.34;4944367;28;20490;-78
2023/02/14 05:00:04;;;;;;;9.55;5.85;;;;;;;6.35;39.28;103022.09;4939748;28;20062;-79
2023/02/14 05:02:32;;;;;;;9.15;5.57;;;;;;;6.29;39.03;103016.84;4946484;28;20051;-79
2023/02/14 05:05:00;;;;;;;8.20;5.75;;;;;;;6.26;39.50;103026.94;4943692;29;20052;-78
2023/02/14 05:07:28;;;;;;;8.77;5.47;;;;;;;6.21;39.57;103027.09;4939499;28;20074;-79
2023/02/14 05:09:56;;;;;;;10.27;5.95;;;;;;;6.18;39.72;103026.34;4927782;29;20050;-78
2023/02/14 05:12:24;;;;;;;7.75;5.30;;;;;;;6.14;39.88;103021.94;4953649;28;20051;-78
2023/02/14 05:14:51;;;;;;;10.77;5.50;;;;;;;6.12;39.66;103018.41;4948244;28;20057;-79
2023/02/14 05:17:20;;;;;;;8.73;5.85;;;;;;;6.08;39.61;103012.16;4938849;28;20043;-79
2023/02/14 05:19:48;;;;;;;9.63;5.88;;;;;;;6.05;39.83;103009.53;4946734;28;20051;-79
2023/02/14 05:22:16;;;;;;;9.43;6.05;;;;;;;6.01;40.00;103006.06;4946940;28;20533;-79
2023/02/14 05:24:45;;;;;;;9.00;6.10;;;;;;;5.99;40.05;103007.03;4948215;28;20054;-78
2023/02/14 05:27:13;;;;;;;8.45;5.60;;;;;;;5.97;40.11;103012.53;4924158;29;20052;-79
2023/02/14 05:29:40;;;;;;;8.82;5.55;;;;;;;5.97;39.94;103012.53;4950693;28;20537;-79
2023/02/14 05:32:08;;;;;;;8.95;5.90;;;;;;;5.97;40.04;103006.19;4935624;29;20043;-79
2023/02/14 05:34:38;;;;;;;10.52;5.97;;;;;;;5.97;40.19;103003.47;4952219;29;20050;-79
2023/02/14 05:37:06;;;;;;;8.95;5.90;;;;;;;5.97;40.28;103001.66;4935009;29;20051;-78
2023/02/14 05:39:33;;;;;;;10.40;6.05;;;;;;;5.97;40.24;102998.03;4940887;29;20043;-77
2023/02/14 05:42:02;;;;;;;9.77;6.05;;;;;;;5.99;40.30;103004.31;4962728;29;20069;-77
2023/02/14 05:44:29;;;;;;;9.43;5.70;;;;;;;6.00;40.25;103000.66;4947537;29;20058;-79
2023/02/14 05:46:57;;;;;;;8.43;5.40;;;;;;;6.00;40.30;103004.28;4952924;28;20065;-77
2023/02/14 05:49:25;;;;;;;9.30;5.53;;;;;;;6.00;40.32;103001.56;4939580;29;20070;-79
2023/02/14 05:51:54;;;;;;;9.18;5.85;;;;;;;6.03;40.27;103009.63;4948500;28;20047;-79
2023/02/14 05:54:22;;;;;;;10.05;6.00;;;;;;;6.03;40.42;103006.00;4953108;28;20066;-79
2023/02/14 05:56:50;;;;;;;10.73;6.35;;;;;;;6.05;40.47;103006.81;4943287;28;20517;-79
2023/02/14 05:59:17;;;;;;;10.65;6.30;;;;;;;6.04;40.45;103011.38;4945105;28;20650;-79
2023/02/14 06:01:45;;;;;;;10.35;6.20;;;;;;;6.06;40.44;103001.34;4949157;28;20044;-79
2023/02/14 06:04:13;;;;;;;10.05;6.30;;;;;;;6.07;40.26;103011.28;4926315;29;20043;-79
2023/02/14 06:06:41;;;;;;;8.13;5.78;;;;;;;6.09;40.56;103008.50;4940854;29;20054;-78
2023/02/14 06:09:10;;;;;;;10.35;6.20;;;;;;;6.11;40.48;103006.63;4928263;28;20486;-79
2023/02/14 06:11:38;;;;;;;10.77;6.85;;;;;;;6.11;40.60;103009.34;4948844;29;20455;-79
2023/02/14 06:14:05;;;;;;;11.07;6.82;;;;;;;6.12;40.43;103012.97;4934439;29;20106;-78
2023/02/14 06:16:33;;;;;;;8.70;6.05;;;;;;;6.11;40.47;103008.47;4948355;28;20047;-79
2023/02/14 06:19:01;;;;;;;9.57;6.38;;;;;;;6.11;40.21;103011.19;4948240;28;20055;-78
2023/02/14 06:21:29;;;;;;;9.80;6.07;;;;;;;6.11;40.16;103012.06;4939710;28;20063;-78
2023/02/14 06:23:57;;;;;;;10.75;7.18;;;;;;;6.10;40.03;103014.84;4939011;29;20522;-78
2023/02/14 06:26:26;;;;;;;11.45;6.57;;;;;;;6.09;40.21;103018.50;4942441;29;20059;-77
2023/02/14 06:28:55;;;;;;;10.05;6.47;;;;;;;6.05;40.16;103015.88;4927397;29;20047;-78
2023/02/14 06:31:23;;;;;;;9.77;6.80;;;;;;;6.02;40.20;103013.28;4942586;29;20047;-78
2023/02/14 06:33:52;;;;;;;11.82;6.90;;;;;;;6.02;40.27;103020.53;4927230;29;20464;-78
2023/02/14 06:36:20;;;;;;;9.55;6.40;;;;;;;5.97;40.21;103022.50;4936647;28;20047;-79
2023/02/14 06:38:48;;;;;;;11.45;6.40;;;;;;;5.94;40.37;103026.25;4941731;28;20367;-78
2023/02/14 06:41:17;;;;;;;11.00;6.55;;;;;;;5.94;40.40;103038.94;4937996;28;20043;-77
2023/02/14 06:43:47;;;;;;;11.05;6.68;;;;;;;5.93;40.73;103039.88;4942437;28;20051;-78
2023/02/14 06:46:16;;;;;;;9.55;6.65;;;;;;;5.89;40.44;103036.34;4956421;28;20043;-77
2023/02/14 06:48:44;;;;;;;11.05;7.32;;;;;;;5.87;40.33;103038.22;4938298;29;20050;-79
2023/02/14 06:51:12;;;;;;;11.02;7.35;;;;;;;5.85;40.70;103037.41;4931533;29;20054;-78
2023/02/14 06:53:40;;;;;;;10.45;7.10;;;;;;;5.83;40.43;103031.13;4957859;29;20048;-78
2023/02/14 06:56:08;;;;;;;11.48;7.15;;;;;;;5.80;40.73;103031.22;4958226;29;20047;-79
2023/02/14 06:58:36;;;;;;;12.18;7.05;;;;;;;5.78;40.80;103024.97;4956940;29;20091;-78
2023/02/14 07:01:05;;;;;;;11.30;7.55;;;;;;;5.75;40.91;103035.94;4934503;29;20063;-78
2023/02/14 07:03:33;;;;;;;12.38;7.57;;;;;;;5.72;40.63;103036.03;4940935;29;20526;-78
2023/02/14 07:06:01;;;;;;;15.52;8.10;;;;;;;5.69;40.76;103030.72;4956401;29;20122;-77
2023/02/14 07:08:29;;;;;;;13.02;8.23;;;;;;;5.64;40.86;103039.00;4941659;29;20051;-78
2023/02/14 07:10:57;;;;;;;13.65;8.13;;;;;;;5.61;40.66;103032.78;4952210;29;20487;-79
2023/02/14 07:13:25;;;;;;;11.32;7.40;;;;;;;5.61;40.95;103040.94;4958530;29;20079;-77
2023/02/14 07:15:53;;;;;;;11.25;7.75;;;;;;;5.56;41.18;103038.34;4953556;29;20550;-79
2023/02/14 07:18:22;;;;;;;12.18;8.20;;;;;;;5.54;41.23;103037.50;4931732;29;20050;-79
2023/02/14 07:20:51;;;;;;;11.27;7.70;;;;;;;5.53;41.24;103035.75;4941808;29;20083;-78
2023/02/14 07:23:18;;;;;;;12.80;8.38;;;;;;;5.51;41.58;103034.91;4929165;29;20039;-77
2023/02/14 07:25:46;;;;;;;13.98;9.25;;;;;;;5.53;42.02;103033.03;4944333;28;20072;-77
2023/02/14 07:28:14;;;;;;;13.75;8.38;;;;;;;5.56;42.18;103037.47;4940864;29;20047;-79
2023/02/14 07:30:42;;;;;;;13.57;8.90;;;;;;;5.62;42.38;103031.84;4949923;29;20043;-78
2023/02/14 07:33:10;;;;;;;13.20;8.43;;;;;;;5.70;42.18;103029.78;4945231;29;20490;-77
2023/02/14 07:35:40;;;;;;;13.38;8.38;;;;;;;5.80;42.22;103033.94;4951019;29;20236;-78
2023/02/14 07:38:08;;;;;;;13.23;8.82;;;;;;;5.85;42.06;103029.25;4944069;29;20044;-77
2023/02/14 07:40:36;;;;;;;14.13;8.95;;;;;;;5.92;41.86;103029.94;4935327;29;20146;-78
2023/02/14 07:43:03;;;;;;;13.70;8.50;;;;;;;5.96;42.27;103028.88;4936311;29;20454;-78
2023/02/14 07:45:31;;;;;;;12.75;8.35;;;;;;;6.02;41.74;103024.16;4946534;29;20464;-77
2023/02/14 07:48:00;;;;;;;13.27;8.82;;;;;;;6.04;41.87;103022.25;4946168;28;20125;-78
2023/02/14 07:50:29;;;;;;;13.52;8.98;;;;;;;6.07;42.01;103024.88;4924233;29;20164;-77
2023/02/14 07:52:58;;;;;;;12.95;8.82;;;;;;;6.12;41.65;103023.84;4945386;29;20127;-77
2023/02/14 07:55:26;;;;;;;14.18;8.18;;;;;;;6.12;41.76;103021.97;4937692;29;20119;-77
2023/02/14 07:57:54;;;;;;;13.38;8.93;;;;;;;6.16;41.67;103030.94;4945359;28;20075;-77
2023/02/14 08:00:22;;;;;;;14.93;9.15;;;;;;;6.18;41.86;103026.34;4947202;28;20090;-76
2023/02/14 08:02:50;;;;;;;14.63;8.82;;;;;;;6.21;41.99;103032.53;4945009;28;20040;-77
2023/02/14 08:05:18;;;;;;;15.20;9.75;;;;;;;6.24;41.79;103040.59;4947725;28;20126;-77
2023/02/14 08:07:46;;;;;;;15.43;10.02;;;;;;;6.27;41.74;103032.34;4931165;29;20046;-78
2023/02/14 08:10:15;;;;;;;13.75;8.98;;;;;;;6.32;41.81;103030.34;4941218;29;20376;-77
2023/02/14 08:12:58;;;;;;;15.43;9.85;;;;;;;6.34;41.81;103028.47;4932981;29;20050;-78
2023/02/14 08:18:13;;;;;;;14.55;8.77;;;;;;;6.40;41.71;103030.06;4951041;28;20055;-78
2023/02/14 08:20:42;;;;;;;13.73;8.63;;;;;;;6.44;41.86;103029.03;4938525;29;20099;-77
2023/02/14 08:23:10;;;;;;;13.50;8.77;;;;;;;6.48;41.91;103027.97;4954999;29;20047;-78
2023/02/14 08:25:40;;;;;;;14.85;9.50;;;;;;;6.50;42.01;103026.06;4936009;29;20058;-77
2023/02/14 08:28:08;;;;;;;14.18;9.32;;;;;;;6.53;41.69;103023.22;4955220;28;20047;-78
2023/02/14 08:30:37;;;;;;;15.88;9.88;;;;;;;6.56;41.85;103030.41;4942813;28;20373;-78
2023/02/14 08:33:05;;;;;;;15.13;9.57;;;;;;;6.58;41.77;103033.97;4947477;29;20043;-78
2023/02/14 08:35:34;;;;;;;13.52;8.63;;;;;;;6.60;41.82;103032.06;4942551;28;20047;-77
2023/02/14 08:38:02;;;;;;;15.45;10.13;;;;;;;6.60;41.76;103032.97;4955675;28;20047;-77
2023/02/14 08:40:30;;;;;;;16.50;9.73;;;;;;;6.64;41.68;103029.19;4943827;29;20078;-78
2023/02/14 08:42:59;;;;;;;15.68;8.68;;;;;;;6.68;41.99;103039.03;4956551;28;20063;-78
2023/02/14 08:45:27;;;;;;;15.63;9.60;;;;;;;6.69;41.91;103040.78;4950930;28;20049;-79
2023/02/14 08:48:00;;;;;;;14.38;9.23;;;;;;;6.74;41.97;103040.63;4950851;28;20083;-78
2023/02/14 08:50:29;;;;;;;14.93;9.45;;;;;;;6.74;42.01;103035.16;4950815;28;20043;-77
2023/02/14 08:52:56;;;;;;;16.00;9.50;;;;;;;6.78;42.15;103031.41;4945875;29;20047;-77
2023/02/14 08:55:24;;;;;;;15.13;9.95;;;;;;;6.82;42.03;103039.41;4931844;29;20043;-76
2023/02/14 08:57:54;;;;;;;16.08;9.90;;;;;;;6.88;42.02;103034.69;4948681;28;20095;-76
2023/02/14 09:00:23;;;;;;;14.98;9.88;;;;;;;6.95;42.23;103033.50;4950896;28;20039;-77
2023/02/14 09:02:52;;;;;;;16.13;9.50;;;;;;;7.01;42.51;103030.56;4932886;29;20522;-77
2023/02/14 09:05:22;;;;;;;17.08;10.52;;;;;;;7.10;42.60;103035.66;4937286;29;20527;-78
2023/02/14 09:07:50;;;;;;;15.25;9.50;;;;;;;7.19;42.67;103035.28;4949225;29;20058;-77
2023/02/14 09:10:18;;;;;;;15.30;9.75;;;;;;;7.27;42.59;103024.13;4936968;28;20110;-77
2023/02/14 09:12:46;;;;;;;14.70;9.32;;;;;;;7.39;42.56;103027.22;4948001;29;20044;-77
2023/02/14 09:15:14;;;;;;;16.17;9.55;;;;;;;7.50;42.42;103027.69;4948914;29;20685;-78
2023/02/14 09:17:43;;;;;;;16.17;10.55;;;;;;;7.64;42.22;103018.06;4944621;29;20035;-78
2023/02/14 09:20:13;;;;;;;16.35;9.82;;;;;;;7.76;42.48;103010.28;4945837;28;20045;-78
2023/02/14 09:22:41;;;;;;;16.55;10.23;;;;;;;7.87;42.29;103007.06;4953213;29;20109;-78
2023/02/14 09:25:09;;;;;;;18.75;10.60;;;;;;;7.99;42.41;103012.03;4953716;29;20072;-77
2023/02/14 09:27:37;;;;;;;17.63;10.93;;;;;;;8.12;42.16;103009.66;4944745;29;20067;-77
2023/02/14 09:30:06;;;;;;;16.95;10.32;;;;;;;8.23;42.13;103005.53;4932089;28;20046;-77
2023/02/14 09:32:34;;;;;;;15.93;10.73;;;;;;;8.37;42.00;103004.03;4948929;29;20519;-79
2023/02/14 09:35:03;;;;;;;15.32;9.82;;;;;;;8.47;41.59;102998.09;4952529;28;20047;-78
2023/02/14 09:37:31;;;;;;;16.08;10.80;;;;;;;8.56;41.55;102997.69;4944685;28;20055;-79
2023/02/14 09:39:59;;;;;;;15.65;10.27;;;;;;;8.66;41.55;102988.16;4941455;28;20043;-78
2023/02/14 09:42:46;;;;;;;16.88;10.38;;;;;;;8.79;40.95;102999.38;4948976;29;20569;-79
2023/02/14 09:45:17;;;;;;;16.13;9.70;;;;;;;8.88;41.68;102995.31;4950321;28;20079;-78
2023/02/14 09:47:49;;;;;;;14.77;9.63;;;;;;;8.99;41.04;102996.59;4941306;29;20446;-79
2023/02/14 09:50:24;;;;;;;15.60;10.15;;;;;;;9.08;40.77;102995.28;4946036;28;20031;-77
2023/02/14 09:52:55;;;;;;;16.27;9.82;;;;;;;9.20;41.10;102994.69;4935310;28;20047;-78
2023/02/14 09:55:28;;;;;;;16.35;10.38;;;;;;;9.30;40.70;102998.75;4944395;29;20138;-77
2023/02/14 09:58:03;;;;;;;;;;;;;;;9.10;41.17;102987.88;4952400;28;20325;-77
2023/02/14 10:00:36;;;;;;;14.50;8.35;;;;;;;9.47;40.54;102984.31;4940651;28;20488;-77
2023/02/14 10:03:37;;;;;;;15.43;9.57;;;;;;;9.63;39.93;102993.50;4934372;29;20043;-79
2023/02/14 10:06:19;;;;;;;15.55;10.13;;;;;;;9.72;39.79;102992.16;4938512;28;20048;-81
2023/02/14 10:09:01;;;;;;;15.30;9.85;;;;;;;9.83;39.59;102985.16;4932476;29;20118;-79
2023/02/14 10:11:30;;;;;;;15.40;9.68;;;;;;;9.88;40.66;102989.53;4942280;29;20731;-81
2023/02/14 10:14:04;;;;;;;14.05;9.07;;;;;;;10.01;40.17;102986.09;4946000;28;20061;-79
2023/02/14 10:16:36;;;;;;;14.55;9.70;;;;;;;10.10;40.10;102979.25;4942437;29;20142;-80
2023/02/14 10:19:13;;;;;;;16.70;9.88;;;;;;;10.17;39.55;102988.91;4943597;28;20518;-79
2023/02/14 10:21:50;;;;;;;14.45;9.32;;;;;;;10.29;39.29;102987.41;4951796;28;20054;-78
2023/02/14 10:24:23;;;;;;;14.20;9.15;;;;;;;10.36;39.62;102980.63;4930480;29;20055;-76
2023/02/14 10:27:15;;;;;;;14.95;9.73;;;;;;;10.40;38.80;102983.09;4942490;28;20461;-80
2023/02/14 10:29:43;;;;;;;14.75;9.35;;;;;;;10.48;39.47;102988.19;4909803;29;20044;-73
2023/02/14 10:32:14;;;;;;;12.95;8.15;;;;;;;10.60;39.34;102993.03;4930493;29;20048;-74
2023/02/14 10:34:48;;;;;;;14.15;9.05;;;;;;;10.68;38.82;102982.53;4929569;29;20051;-74
2023/02/14 10:37:30;;;;;;;12.10;8.55;;;;;;;10.78;38.78;102977.47;4931441;29;20047;-73
2023/02/14 10:40:21;;;;;;;13.82;8.43;;;;;;;10.85;38.57;102973.41;4927725;29;20054;-74
2023/02/14 10:42:57;;;;;;;13.10;8.68;;;;;;;10.96;38.92;102981.91;4926705;29;20166;-74
2023/02/14 10:45:34;;;;;;;14.38;8.82;;;;;;;11.06;38.34;102968.59;4910248;29;20059;-75
2023/02/14 10:48:15;;;;;;;12.65;8.70;;;;;;;11.14;38.32;102969.91;4897651;29;20047;-74
2023/02/14 10:50:51;;;;;;;13.00;8.30;;;;;;;11.21;38.07;102954.03;4922237;29;20047;-74
2023/02/14 10:53:26;;;;;;;13.68;8.65;;;;;;;11.31;38.25;102956.13;4910194;29;20058;-73
2023/02/14 10:56:00;;;;;;;13.13;8.98;;;;;;;11.37;38.35;102954.91;4900174;29;20387;-74
2023/02/14 10:58:32;;;;;;;14.48;9.15;;;;;;;11.42;37.96;102943.66;4899601;29;20059;-74
2023/02/14 11:01:03;;;;;;;12.80;8.50;;;;;;;11.46;37.93;102942.53;4901462;29;20135;-74
2023/02/14 11:03:34;;;;;;;13.68;8.88;;;;;;;11.51;38.23;102944.00;4899483;29;20541;-76
2023/02/14 11:06:02;;;;;;;13.55;9.02;;;;;;;11.53;37.78;102939.31;4882691;29;20498;-75
2023/02/14 11:08:35;;;;;;;14.73;8.80;;;;;;;11.60;37.48;102935.25;4911623;29;20040;-76
2023/02/14 11:11:13;;;;;;;11.73;7.50;;;;;;;11.62;36.97;102938.81;4886823;29;20044;-76
2023/02/14 11:13:42;;;;;;;12.07;8.32;;;;;;;11.65;37.40;102926.75;4914706;29;20042;-76
2023/02/14 11:16:13;;;;;;;13.38;9.45;;;;;;;11.68;36.82;102923.84;4914689;29;20044;-76
2023/02/14 11:18:41;;;;;;;14.38;8.82;;;;;;;11.71;37.03;102937.38;4902457;29;20070;-75
2023/02/14 11:21:11;;;;;;;14.32;9.38;;;;;;;11.74;37.02;102929.84;4914971;29;20099;-76
2023/02/14 11:23:42;;;;;;;11.60;8.00;;;;;;;11.77;36.57;102931.53;4897233;29;20620;-75
2023/02/14 11:26:17;;;;;;;12.05;8.38;;;;;;;11.80;36.47;102923.09;4897564;29;20090;-76
2023/02/14 11:28:54;;;;;;;11.75;8.13;;;;;;;11.82;36.51;102918.41;4913540;29;20044;-74
2023/02/14 11:31:27;;;;;;;12.57;8.00;;;;;;;11.86;36.94;102914.53;4915314;29;20040;-76
2023/02/14 11:33:56;;;;;;;12.13;7.90;;;;;;;11.90;37.59;102921.56;4896292;29;20417;-76
2023/02/14 11:36:25;;;;;;;14.75;9.15;;;;;;;11.95;37.15;102911.22;4897826;29;20048;-76
2023/02/14 11:39:05;;;;;;;11.80;7.72;;;;;;;12.04;36.67;102915.25;4913515;29;20071;-76
2023/02/14 11:41:47;;;;;;;9.07;6.22;;;;;;;12.10;37.60;102903.91;4897501;29;20139;-65
2023/02/14 11:44:21;;;;;;;13.02;7.93;;;;;;;12.15;38.04;102904.47;4909004;29;20041;-65
2023/02/14 11:46:50;;;;;;;12.15;7.35;;;;;;;12.25;37.68;102900.19;4903825;29;20082;-65
2023/02/14 11:49:28;;;;;;;12.65;8.27;;;;;;;12.37;37.13;102899.44;4891694;29;20091;-75
2023/02/14 11:51:58;;;;;;;10.63;7.63;;;;;;;12.44;37.28;102894.44;4903898;29;20049;-74
2023/02/14 11:54:34;;;;;;;12.52;8.02;;;;;;;12.55;36.85;102891.88;4893411;29;20049;-74
2023/02/14 11:57:06;;;;;;;11.77;7.60;;;;;;;12.63;36.96;102884.06;4913358;29;20144;-71
2023/02/14 11:59:38;;;;;;;11.52;7.32;;;;;;;12.68;36.58;102883.78;4912675;29;20064;-75
2023/02/14 12:02:21;;;;;;;12.95;7.95;;;;;;;12.77;35.56;102884.06;4883394;29;20047;-75
2023/02/14 12:04:54;;;;;;;10.95;7.93;;;;;;;12.84;36.24;102879.03;4899565;29;20064;-75